Time;durP1;ratioP1;P1;durP2;ratioP2;P2;SDS_P1;SDS_P2;PMS_P1;PMS_P2;Temp;Humidity;BMP_temperature;BMP_pressure;BME280_temperature;BME280_humidity;BME280_pressure;Samples;Min_cycle;Max_cycle;Signal;HPM_P1;HPM_P2
2022/03/08 00:01:36;;;;;;;17.02;11.15;;;0.30;92.00;;;-146.41;100.00;57768.22;4980614;28;20055;-65
2022/03/08 00:04:04;;;;;;;16.58;11.23;;;0.30;92.00;;;-146.41;100.00;57768.22;4982708;28;20043;-66
2022/03/08 00:06:31;;;;;;;15.68;10.35;;;0.30;91.80;;;-146.41;100.00;57768.22;4984655;28;20227;-66
2022/03/08 00:08:58;;;;;;;18.30;11.45;;;0.20;92.20;;;-146.41;100.00;57768.22;4980174;28;20130;-67
2022/03/08 00:11:24;;;;;;;21.23;10.65;;;0.10;92.40;;;-146.41;100.00;57768.22;4984482;28;20077;-63
2022/03/08 00:13:52;;;;;;;17.13;10.90;;;0.10;92.10;;;-146.41;100.00;57768.22;4978801;28;20050;-64
2022/03/08 00:16:19;;;;;;;16.85;11.00;;;0.20;92.10;;;-146.41;100.00;57768.22;4978753;28;20142;-63
2022/03/08 00:18:49;;;;;;;17.85;10.73;;;0.10;92.30;;;-146.41;100.00;57768.22;4981849;28;20092;-63
2022/03/08 00:21:18;;;;;;;19.48;11.68;;;0.10;92.50;;;-146.41;100.00;57768.22;4962711;28;20050;-64
2022/03/08 00:23:47;;;;;;;16.27;11.75;;;0.10;92.30;;;-146.41;100.00;57768.22;4982207;28;20054;-64
2022/03/08 00:26:14;;;;;;;16.65;10.98;;;0.10;92.30;;;-146.41;100.00;57768.22;4981038;28;20130;-67
2022/03/08 00:28:41;;;;;;;14.02;10.20;;;0.10;92.40;;;-146.41;100.00;57768.22;4983827;28;20133;-66
2022/03/08 00:31:08;;;;;;;16.80;10.32;;;0.10;92.30;;;-146.41;100.00;57768.22;4962971;28;20057;-65
2022/03/08 00:33:35;;;;;;;16.73;11.35;;;0.10;92.20;;;-146.41;100.00;57768.22;4981349;28;20500;-64
2022/03/08 00:36:04;;;;;;;17.35;11.63;;;0.00;92.20;;;-146.41;100.00;57768.22;4982804;28;20137;-65
2022/03/08 00:38:31;;;;;;;16.60;10.43;;;0.10;92.30;;;-146.41;100.00;57768.22;4988894;28;20049;-67
2022/03/08 00:40:58;;;;;;;17.27;11.45;;;0.10;92.30;;;-146.41;100.00;57768.22;4983612;28;20501;-63
2022/03/08 00:43:26;;;;;;;18.00;11.20;;;0.00;92.20;;;-146.41;100.00;57768.22;4981447;28;20054;-65
2022/03/08 00:45:54;;;;;;;17.15;11.30;;;0.00;92.30;;;-146.41;100.00;57768.22;4951214;28;20137;-64
2022/03/08 00:48:21;;;;;;;18.38;11.75;;;0.00;92.40;;;-146.41;100.00;57768.22;4969857;28;20055;-66
2022/03/08 00:50:48;;;;;;;16.70;11.45;;;0.00;92.50;;;-146.41;100.00;57768.22;4984386;28;20491;-64
2022/03/08 00:53:15;;;;;;;17.77;11.48;;;0.00;92.50;;;-146.41;100.00;57768.22;4982663;28;20050;-66
2022/03/08 00:55:42;;;;;;;17.55;11.55;;;-0.10;92.40;;;-146.41;100.00;57768.22;4984674;28;20048;-67
2022/03/08 00:58:09;;;;;;;17.50;11.15;;;-0.10;92.60;;;-146.41;100.00;57768.22;4983182;28;20053;-65
2022/03/08 01:00:38;;;;;;;18.50;11.27;;;-0.10;92.60;;;-146.41;100.00;57768.22;4984891;28;20508;-66
2022/03/08 01:03:06;;;;;;;16.23;11.30;;;-0.10;92.50;;;-146.41;100.00;57768.22;4970063;28;20081;-66
2022/03/08 01:05:34;;;;;;;17.30;11.52;;;-0.10;92.70;;;-146.41;100.00;57768.22;4984816;28;20050;-66
2022/03/08 01:08:02;;;;;;;18.77;12.27;;;-0.10;92.60;;;-146.41;100.00;57768.22;4984879;28;20169;-66
2022/03/08 01:10:30;;;;;;;17.80;11.43;;;-0.10;92.60;;;-146.41;100.00;57768.22;4966034;28;21487;-65
2022/03/08 01:12:58;;;;;;;16.27;11.57;;;-0.10;92.60;;;-146.41;100.00;57768.22;4987793;28;20078;-66
2022/03/08 01:15:25;;;;;;;18.75;11.50;;;-0.10;92.50;;;-146.41;100.00;57768.22;4970508;28;20531;-66
2022/03/08 01:17:55;;;;;;;16.98;11.88;;;-0.20;92.40;;;-146.41;100.00;57768.22;4985851;28;20130;-64
2022/03/08 01:20:23;;;;;;;21.48;12.40;;;-0.20;92.50;;;-146.41;100.00;57768.22;4969105;28;20065;-66
2022/03/08 01:22:50;;;;;;;20.65;12.95;;;-0.20;92.90;;;-146.41;100.00;57768.22;4985321;28;20050;-67
2022/03/08 01:25:20;;;;;;;19.83;13.32;;;-0.30;93.10;;;-146.41;100.00;57768.22;4987716;28;20133;-66
2022/03/08 01:27:49;;;;;;;17.90;12.05;;;-0.30;93.00;;;-146.41;100.00;57768.22;4986306;28;20125;-66
2022/03/08 01:30:19;;;;;;;19.65;11.75;;;-0.30;93.20;;;-146.41;100.00;57768.22;4987240;28;20082;-66
2022/03/08 01:32:46;;;;;;;19.52;12.77;;;-0.40;93.30;;;-146.41;100.00;57768.22;4988578;28;20079;-66
2022/03/08 01:35:14;;;;;;;18.48;12.18;;;-0.30;93.20;;;-146.41;100.00;57768.22;4983498;28;20134;-66
2022/03/08 01:37:41;;;;;;;18.00;12.50;;;-0.30;93.00;;;-146.41;100.00;57768.22;4988471;28;20100;-65
2022/03/08 01:40:14;;;;;;;19.05;12.63;;;-0.30;93.00;;;-146.41;100.00;57768.22;4988475;28;20042;-65
2022/03/08 01:42:49;;;;;;;21.00;12.95;;;-0.40;93.20;;;-146.41;100.00;57768.22;4983935;28;20137;-66
2022/03/08 01:45:19;;;;;;;15.80;10.70;;;-0.40;93.40;;;-146.41;100.00;57768.22;4985380;28;20146;-67
2022/03/08 01:47:47;;;;;;;19.73;13.23;;;-0.40;93.20;;;-146.41;100.00;57768.22;4982847;28;20049;-66
2022/03/08 01:50:15;;;;;;;16.75;11.68;;;-0.40;93.30;;;-146.41;100.00;57768.22;4969797;28;20141;-65
2022/03/08 01:52:43;;;;;;;18.88;12.93;;;-0.40;93.60;;;-146.41;100.00;57768.22;4981205;28;20084;-64
2022/03/08 01:55:12;;;;;;;18.88;11.57;;;-0.50;93.40;;;-146.41;100.00;57768.22;4986639;28;20217;-65
2022/03/08 01:57:39;;;;;;;17.35;12.00;;;-0.50;93.50;;;-146.41;100.00;57768.22;4987524;28;20042;-65
2022/03/08 02:00:13;;;;;;;21.08;11.85;;;-0.40;93.70;;;-146.41;100.00;57768.22;4970058;28;20133;-66
2022/03/08 02:02:41;;;;;;;17.98;12.38;;;-0.50;93.80;;;-146.41;100.00;57768.22;4985868;28;20358;-66
2022/03/08 02:05:09;;;;;;;16.35;10.73;;;-0.50;94.00;;;-146.41;100.00;57768.22;4985998;28;20082;-65
2022/03/08 02:07:37;;;;;;;18.95;10.75;;;-0.50;94.10;;;-146.41;100.00;57768.22;4984713;28;20062;-66
2022/03/08 02:10:07;;;;;;;18.67;11.95;;;-0.60;93.90;;;-146.41;100.00;57768.22;4970753;28;20137;-66
2022/03/08 02:12:34;;;;;;;18.08;10.65;;;-0.60;93.90;;;-146.41;100.00;57768.22;4966638;28;20050;-66
2022/03/08 02:15:20;;;;;;;21.20;11.98;;;-0.60;94.20;;;-146.41;100.00;57768.22;4986469;28;20074;-66
2022/03/08 02:17:49;;;;;;;17.13;10.82;;;-0.60;94.60;;;-146.41;100.00;57768.22;4963820;28;20141;-66
2022/03/08 02:20:18;;;;;;;18.88;11.00;;;-0.60;94.20;;;-146.41;100.00;57768.22;4986470;28;20088;-65
2022/03/08 02:22:47;;;;;;;17.92;10.55;;;-0.60;94.30;;;-146.41;100.00;57768.22;4986850;28;20108;-66
2022/03/08 02:25:16;;;;;;;17.42;11.15;;;-0.60;94.40;;;-146.41;100.00;57768.22;4983845;28;20047;-64
2022/03/08 02:27:47;;;;;;;17.38;11.25;;;-0.60;94.70;;;-146.41;100.00;57768.22;4986591;28;20065;-64
2022/03/08 02:30:16;;;;;;;15.27;10.50;;;-0.60;94.70;;;-146.41;100.00;57768.22;4966634;28;20075;-64
2022/03/08 02:32:44;;;;;;;14.23;10.60;;;-0.60;95.00;;;-146.41;100.00;57768.22;4983834;28;20046;-65
2022/03/08 02:35:15;;;;;;;17.45;11.57;;;-0.70;94.80;;;-146.41;100.00;57768.22;4981836;28;20246;-63
2022/03/08 02:37:52;;;;;;;17.70;12.18;;;-0.80;94.90;;;-146.41;100.00;57768.22;4984813;28;20567;-64
2022/03/08 02:40:27;;;;;;;17.83;11.40;;;-0.70;95.00;;;-146.41;100.00;57768.22;4984146;28;20105;-63
2022/03/08 02:42:54;;;;;;;14.88;10.52;;;-0.70;95.00;;;-146.41;100.00;57768.22;4982181;28;20082;-64
2022/03/08 02:45:22;;;;;;;16.98;10.38;;;-0.70;95.10;;;-146.41;100.00;57768.22;4987788;28;20141;-64
2022/03/08 02:47:49;;;;;;;15.98;10.63;;;-0.70;95.10;;;-146.41;100.00;57768.22;4983144;28;20126;-64
2022/03/08 02:50:17;;;;;;;16.67;9.63;;;-0.70;95.10;;;-146.41;100.00;57768.22;4985038;28;20051;-63
2022/03/08 02:52:51;;;;;;;14.85;10.18;;;-0.80;94.90;;;-146.41;100.00;57768.22;4981974;28;20588;-63
2022/03/08 02:55:19;;;;;;;;;;;-0.80;94.70;;;-146.41;100.00;57768.22;4970305;28;20097;-63
2022/03/08 02:57:47;;;;;;;14.32;9.32;;;-0.70;94.80;;;-146.41;100.00;57768.22;4982575;28;19965;-65
2022/03/08 03:00:16;;;;;;;14.38;9.63;;;-0.80;94.80;;;-146.41;100.00;57768.22;4982098;28;20137;-65
2022/03/08 03:02:44;;;;;;;14.82;9.57;;;-0.80;94.90;;;-146.41;100.00;57768.22;4983472;28;20050;-65
2022/03/08 03:05:12;;;;;;;15.60;9.93;;;-0.90;95.50;;;-146.41;100.00;57768.22;4986225;28;20042;-65
2022/03/08 03:07:40;;;;;;;16.08;10.80;;;-0.90;95.40;;;-146.41;100.00;57768.22;4979891;28;20127;-64
2022/03/08 03:10:10;;;;;;;15.20;10.65;;;-1.00;96.10;;;-146.41;100.00;57768.22;4982627;28;20154;-64
2022/03/08 03:12:38;;;;;;;18.05;10.93;;;-1.00;95.80;;;-146.41;100.00;57768.22;4984864;28;20145;-64
2022/03/08 03:15:08;;;;;;;15.23;9.55;;;-1.00;95.70;;;-146.41;100.00;57768.22;4982139;28;20057;-66
2022/03/08 03:17:36;;;;;;;14.23;9.55;;;-1.10;95.90;;;-146.41;100.00;57768.22;4986779;28;20100;-63
2022/03/08 03:20:08;;;;;;;13.35;9.27;;;-1.20;96.30;;;-146.41;100.00;57768.22;4988123;28;20042;-66
2022/03/08 03:22:36;;;;;;;15.07;9.13;;;-1.20;96.10;;;-146.41;100.00;57768.22;4983538;28;20141;-64
2022/03/08 03:25:04;;;;;;;15.32;10.02;;;-1.20;96.00;;;-146.41;100.00;57768.22;4980021;28;20520;-64
2022/03/08 03:27:31;;;;;;;15.07;9.95;;;-1.30;96.60;;;-146.41;100.00;57768.22;4983706;28;20133;-64
2022/03/08 03:29:58;;;;;;;15.77;9.73;;;-1.30;96.20;;;-146.41;100.00;57768.22;4982933;28;20058;-64
2022/03/08 03:32:25;;;;;;;15.18;9.73;;;-1.30;96.50;;;-146.41;100.00;57768.22;4983700;28;20046;-64
2022/03/08 03:34:52;;;;;;;16.65;10.00;;;-1.40;97.00;;;-146.41;100.00;57768.22;4983847;28;20547;-65
2022/03/08 03:37:20;;;;;;;15.02;10.07;;;-1.50;97.20;;;-146.41;100.00;57768.22;4983922;28;20077;-64
2022/03/08 03:39:47;;;;;;;16.25;10.18;;;-1.60;97.60;;;-146.41;100.00;57768.22;4983587;28;20042;-64
2022/03/08 03:42:14;;;;;;;14.80;8.57;;;-1.60;98.00;;;-146.41;100.00;57768.22;4983534;28;20129;-64
2022/03/08 03:44:41;;;;;;;14.77;9.90;;;-1.60;97.60;;;-146.41;100.00;57768.22;4955042;28;20081;-63
2022/03/08 03:47:08;;;;;;;16.42;9.35;;;-1.70;97.70;;;-146.41;100.00;57768.22;4980388;28;20043;-65
2022/03/08 03:49:35;;;;;;;14.48;9.73;;;-1.60;97.60;;;-146.41;100.00;57768.22;4981456;28;20058;-63
2022/03/08 03:52:04;;;;;;;17.20;10.25;;;-1.60;97.40;;;-146.41;100.00;57768.22;4985221;28;20141;-64
2022/03/08 03:54:31;;;;;;;12.95;9.00;;;-1.60;97.70;;;-146.41;100.00;57768.22;4932060;28;20394;-64
2022/03/08 03:56:58;;;;;;;14.95;9.85;;;-1.70;97.70;;;-146.41;100.00;57768.22;4986803;28;20060;-64
2022/03/08 03:59:26;;;;;;;15.35;9.88;;;-1.60;97.20;;;-146.41;100.00;57768.22;4967699;28;20099;-65
2022/03/08 04:01:52;;;;;;;14.50;9.68;;;-1.60;97.70;;;-146.41;100.00;57768.22;4982154;28;20148;-64
2022/03/08 04:04:20;;;;;;;18.35;10.20;;;-1.60;97.80;;;-146.41;100.00;57768.22;4983505;28;20062;-65
2022/03/08 04:06:46;;;;;;;14.77;9.48;;;-1.60;97.60;;;-146.41;100.00;57768.22;4985129;28;20133;-64
2022/03/08 04:09:13;;;;;;;14.20;9.25;;;-1.70;98.00;;;-146.41;100.00;57768.22;4980072;28;20054;-63
2022/03/08 04:11:40;;;;;;;14.85;9.07;;;-1.80;97.60;;;-146.41;100.00;57768.22;4986389;28;20173;-64
2022/03/08 04:14:07;;;;;;;14.40;9.43;;;-1.70;98.00;;;-146.41;100.00;57768.22;4982339;28;20049;-64
2022/03/08 04:16:34;;;;;;;16.17;8.73;;;-1.80;98.40;;;-146.41;100.00;57768.22;4984214;28;20105;-64
2022/03/08 04:19:01;;;;;;;17.45;10.88;;;-1.90;98.10;;;-146.41;100.00;57768.22;4981103;28;20050;-64
2022/03/08 04:21:28;;;;;;;14.05;9.00;;;-2.00;99.60;;;-146.41;100.00;57768.22;4983797;28;20058;-64
2022/03/08 04:23:55;;;;;;;16.70;10.18;;;-2.00;99.20;;;-146.41;100.00;57768.22;4974711;28;20061;-63
2022/03/08 04:26:22;;;;;;;14.80;10.15;;;-2.00;99.80;;;-146.41;100.00;57768.22;4979846;28;20093;-64
2022/03/08 04:28:49;;;;;;;17.52;9.52;;;-2.00;99.50;;;-146.41;100.00;57768.22;4983581;28;20512;-64
2022/03/08 04:31:16;;;;;;;14.70;10.10;;;-2.00;99.60;;;-146.41;100.00;57768.22;4984366;28;20146;-64
2022/03/08 04:33:43;;;;;;;15.68;8.00;;;-2.00;99.30;;;-146.41;100.00;57768.22;4980712;28;20109;-66
2022/03/08 04:36:10;;;;;;;17.75;9.35;;;-2.00;99.40;;;-146.41;100.00;57768.22;4983179;28;20073;-64
2022/03/08 04:38:37;;;;;;;14.57;8.70;;;-2.10;99.90;;;-146.41;100.00;57768.22;4982419;28;20603;-64
2022/03/08 04:41:06;;;;;;;15.88;8.88;;;-2.20;99.90;;;-146.41;100.00;57768.22;4985614;28;20218;-66
2022/03/08 04:43:33;;;;;;;15.68;8.90;;;-2.20;99.90;;;-146.41;100.00;57768.22;4985706;28;20050;-66
2022/03/08 04:46:00;;;;;;;13.18;8.30;;;-2.30;99.90;;;-146.41;100.00;57768.22;4981923;28;20109;-63
2022/03/08 04:48:28;;;;;;;14.38;9.13;;;-2.30;99.90;;;-146.41;100.00;57768.22;4981099;28;20078;-63
2022/03/08 04:50:55;;;;;;;15.95;9.15;;;-2.40;99.90;;;-146.41;100.00;57768.22;4984433;28;20043;-64
2022/03/08 04:53:22;;;;;;;15.70;9.15;;;-2.50;99.90;;;-146.41;100.00;57768.22;4981404;28;20082;-64
2022/03/08 04:55:49;;;;;;;17.35;8.75;;;-2.60;99.90;;;-146.41;100.00;57768.22;4984402;28;20057;-64
2022/03/08 04:58:16;;;;;;;16.60;9.27;;;-2.70;99.90;;;-146.41;100.00;57768.22;4985612;28;20141;-64
2022/03/08 05:00:43;;;;;;;18.17;10.05;;;-2.80;99.90;;;-146.41;100.00;57768.22;4984436;28;20146;-64
2022/03/08 05:03:10;;;;;;;13.82;8.10;;;-2.90;99.90;;;-146.41;100.00;57768.22;4978045;28;20378;-64
2022/03/08 05:05:38;;;;;;;14.40;8.75;;;-2.80;99.90;;;-146.41;100.00;57768.22;4981377;28;20051;-66
2022/03/08 05:08:06;;;;;;;15.73;9.35;;;-2.80;99.90;;;-146.41;100.00;57768.22;4982392;28;20042;-63
2022/03/08 05:10:34;;;;;;;16.80;10.50;;;-2.80;99.90;;;-146.41;100.00;57768.22;4980579;28;20051;-63
2022/03/08 05:13:01;;;;;;;16.60;9.85;;;-2.90;99.90;;;-146.41;100.00;57768.22;4981671;28;20513;-64
2022/03/08 05:15:28;;;;;;;15.88;9.68;;;-3.00;99.90;;;-146.41;100.00;57768.22;4982128;28;20078;-64
2022/03/08 05:17:56;;;;;;;15.23;9.00;;;-3.00;99.90;;;-146.41;100.00;57768.22;4989952;28;20061;-64
2022/03/08 05:20:22;;;;;;;15.43;9.32;;;-3.00;99.90;;;-146.41;100.00;57768.22;4981258;28;20454;-64
2022/03/08 05:22:50;;;;;;;13.32;8.82;;;-3.00;99.90;;;-146.41;100.00;57768.22;4979141;28;20134;-66
2022/03/08 05:25:16;;;;;;;13.88;8.75;;;-2.80;99.90;;;-146.41;100.00;57768.22;4983629;28;20377;-66
2022/03/08 05:27:43;;;;;;;16.35;9.00;;;-2.70;99.90;;;-146.41;100.00;57768.22;4980655;28;21295;-66
2022/03/08 05:30:12;;;;;;;14.25;8.32;;;-2.70;99.90;;;-146.41;100.00;57768.22;4981895;28;20057;-65
2022/03/08 05:32:39;;;;;;;12.35;7.28;;;-2.60;99.90;;;-146.41;100.00;57768.22;4981254;28;20405;-66
2022/03/08 05:35:07;;;;;;;13.00;7.95;;;-2.60;99.90;;;-146.41;100.00;57768.22;4983674;28;20466;-65
2022/03/08 05:37:36;;;;;;;13.73;7.70;;;-2.60;99.90;;;-146.41;100.00;57768.22;4980279;28;20134;-66
2022/03/08 05:40:06;;;;;;;13.45;7.90;;;-2.70;99.90;;;-146.41;100.00;57768.22;4969310;28;20097;-64
2022/03/08 05:42:33;;;;;;;14.50;8.07;;;-2.60;99.90;;;-146.41;100.00;57768.22;4965352;28;20189;-66
2022/03/08 05:45:00;;;;;;;11.75;7.50;;;-2.70;99.90;;;-146.41;100.00;57768.22;4982493;28;20049;-66
2022/03/08 05:47:27;;;;;;;13.38;8.20;;;-2.70;99.90;;;-146.41;100.00;57768.22;4984993;28;20069;-66
2022/03/08 05:49:54;;;;;;;13.25;8.15;;;-2.70;99.90;;;-146.41;100.00;57768.22;4987811;28;20086;-64
2022/03/08 05:52:21;;;;;;;13.52;7.88;;;-2.70;99.90;;;-146.41;100.00;57768.22;4984515;28;20065;-66
2022/03/08 05:54:48;;;;;;;16.35;8.45;;;-2.70;99.90;;;-146.41;100.00;57768.22;4979256;28;20044;-66
2022/03/08 05:57:15;;;;;;;12.70;8.00;;;-2.70;99.90;;;-146.41;100.00;57768.22;4982190;28;20118;-66
2022/03/08 05:59:44;;;;;;;14.43;8.27;;;-2.70;99.90;;;-146.41;100.00;57768.22;4989526;28;20479;-65
2022/03/08 06:02:11;;;;;;;13.20;7.82;;;-2.60;99.90;;;-146.41;100.00;57768.22;4986499;28;20473;-66
2022/03/08 06:04:38;;;;;;;11.77;7.05;;;-2.50;99.90;;;-146.41;100.00;57768.22;4981947;28;20046;-66
2022/03/08 06:07:06;;;;;;;11.10;7.22;;;-2.50;99.90;;;-146.41;100.00;57768.22;4980904;28;20135;-66
2022/03/08 06:09:33;;;;;;;14.10;7.38;;;-2.40;99.90;;;-146.41;100.00;57768.22;4984780;28;20050;-66
2022/03/08 06:12:00;;;;;;;12.80;7.20;;;-2.40;99.90;;;-146.41;100.00;57768.22;4986274;28;20419;-64
2022/03/08 06:14:28;;;;;;;11.90;6.60;;;-2.40;99.90;;;-146.41;100.00;57768.22;4952371;28;20134;-66
2022/03/08 06:16:56;;;;;;;11.88;7.35;;;-2.30;99.90;;;-146.41;100.00;57768.22;4982616;28;20129;-63
2022/03/08 06:19:24;;;;;;;11.65;7.20;;;-2.30;99.90;;;-146.41;100.00;57768.22;4984793;28;20054;-64
2022/03/08 06:21:52;;;;;;;11.32;6.55;;;-2.20;99.90;;;-146.41;100.00;57768.22;4984764;28;20056;-63
2022/03/08 06:24:19;;;;;;;10.65;6.05;;;-2.10;99.90;;;-146.41;100.00;57768.22;4984201;28;20405;-66
2022/03/08 06:26:46;;;;;;;11.43;5.78;;;-1.90;99.90;;;-146.41;100.00;57768.22;4984320;28;20062;-63
2022/03/08 06:29:13;;;;;;;11.45;5.82;;;-1.80;99.90;;;-146.41;100.00;57768.22;4988075;28;20061;-64
2022/03/08 06:31:40;;;;;;;9.07;6.03;;;-1.70;99.90;;;-146.41;100.00;57768.22;4989410;28;20144;-63
2022/03/08 06:34:08;;;;;;;11.85;5.90;;;-1.50;99.90;;;-146.41;100.00;57768.22;4984516;28;20088;-64
2022/03/08 06:36:36;;;;;;;8.20;5.25;;;-1.40;99.90;;;-146.41;100.00;57768.22;4965000;28;20074;-64
2022/03/08 06:39:03;;;;;;;9.75;4.70;;;-1.20;99.80;;;-146.41;100.00;57768.22;4978373;28;20043;-66
2022/03/08 06:41:32;;;;;;;13.30;6.15;;;-1.10;99.50;;;-146.41;100.00;57768.22;4983233;28;20145;-67
2022/03/08 06:44:00;;;;;;;9.88;5.53;;;-1.00;99.50;;;-146.41;100.00;57768.22;4982230;28;20078;-64
2022/03/08 06:46:27;;;;;;;8.60;5.25;;;-0.90;99.20;;;-146.41;100.00;57768.22;4976300;28;20458;-66
2022/03/08 06:48:55;;;;;;;9.32;5.35;;;-0.80;99.20;;;-146.41;100.00;57768.22;4988222;28;20054;-64
2022/03/08 06:51:22;;;;;;;7.80;4.68;;;-0.80;99.00;;;-146.41;100.00;57768.22;4969705;28;20061;-63
2022/03/08 06:53:52;;;;;;;9.02;5.38;;;-0.70;98.70;;;-146.41;100.00;57768.22;4979007;28;20046;-65
2022/03/08 06:56:20;;;;;;;8.77;5.05;;;-0.70;98.90;;;-146.41;100.00;57768.22;4984179;28;20511;-65
2022/03/08 06:58:47;;;;;;;7.18;4.70;;;-0.60;98.50;;;-146.41;100.00;57768.22;4987287;28;20046;-64
2022/03/08 07:01:15;;;;;;;12.00;5.45;;;-0.50;98.70;;;-146.41;100.00;57768.22;4988394;28;20145;-65
2022/03/08 07:03:42;;;;;;;10.23;4.68;;;-0.40;99.00;;;-146.41;100.00;57768.22;4977475;28;20061;-64
2022/03/08 07:06:10;;;;;;;9.05;4.82;;;-0.30;98.60;;;-146.41;100.00;57768.22;4979781;28;20074;-64
2022/03/08 07:08:37;;;;;;;8.27;4.53;;;-0.10;98.50;;;-146.41;100.00;57768.22;4982995;28;20141;-64
2022/03/08 07:11:05;;;;;;;7.22;5.00;;;-0.10;98.50;;;-146.41;100.00;57768.22;4980833;28;20113;-65
2022/03/08 07:13:32;;;;;;;8.70;4.93;;;0.10;98.50;;;-146.41;100.00;57768.22;4987197;28;20136;-65
2022/03/08 07:15:59;;;;;;;8.75;4.97;;;0.20;98.20;;;-146.41;100.00;57768.22;4981589;28;20047;-65
2022/03/08 07:18:27;;;;;;;6.78;4.43;;;0.30;98.30;;;-146.41;100.00;57768.22;4979743;28;20082;-64
2022/03/08 07:20:54;;;;;;;8.23;4.70;;;0.40;98.10;;;-146.41;100.00;57768.22;4980608;28;20133;-65
2022/03/08 07:23:22;;;;;;;11.65;5.57;;;0.50;97.80;;;-146.41;100.00;57768.22;4982501;28;20151;-65
2022/03/08 07:25:49;;;;;;;9.38;5.07;;;0.60;98.00;;;-146.41;100.00;57768.22;4984160;28;20141;-65
2022/03/08 07:28:15;;;;;;;8.88;4.93;;;0.70;98.00;;;-146.41;100.00;57768.22;4982024;28;20054;-65
2022/03/08 07:30:59;;;;;;;9.30;5.28;;;0.80;97.70;;;-146.41;100.00;57768.22;4978844;28;20054;-66
2022/03/08 07:33:27;;;;;;;10.15;5.15;;;0.90;97.60;;;-146.41;100.00;57768.22;4964097;28;20085;-65
2022/03/08 07:35:54;;;;;;;9.90;5.97;;;1.00;97.20;;;-146.41;100.00;57768.22;4975719;28;20089;-65
2022/03/08 07:38:22;;;;;;;9.38;4.53;;;1.10;97.00;;;-146.41;100.00;57768.22;4983738;28;20153;-66
2022/03/08 07:40:49;;;;;;;8.50;4.63;;;1.20;96.90;;;-146.41;100.00;57768.22;4968016;28;20095;-65
2022/03/08 07:43:16;;;;;;;8.63;5.28;;;1.20;96.50;;;-146.41;100.00;57768.22;4980241;28;20054;-64
2022/03/08 07:45:43;;;;;;;8.57;4.07;;;1.30;96.50;;;-146.41;100.00;57768.22;4980365;28;20046;-67
2022/03/08 07:48:10;;;;;;;9.13;5.13;;;1.40;96.40;;;-146.41;100.00;57768.22;4986283;28;20058;-65
2022/03/08 07:50:37;;;;;;;10.93;5.28;;;1.60;96.10;;;-146.41;100.00;57768.22;4984003;28;20545;-66
2022/03/08 07:53:05;;;;;;;8.00;5.32;;;1.90;95.40;;;-146.41;100.00;57768.22;4980992;28;20442;-65
2022/03/08 07:55:32;;;;;;;8.77;5.35;;;2.30;94.90;;;-146.41;100.00;57768.22;4981168;28;20178;-65
2022/03/08 07:58:01;;;;;;;9.25;5.13;;;2.60;94.00;;;-146.41;100.00;57768.22;4983847;28;20129;-66
2022/03/08 08:00:31;;;;;;;10.95;5.63;;;2.90;93.10;;;-146.41;100.00;57768.22;4978767;28;20516;-65
2022/03/08 08:02:59;;;;;;;8.35;5.07;;;3.20;92.20;;;-146.41;100.00;57768.22;4983660;28;20424;-66
2022/03/08 08:05:27;;;;;;;8.35;5.03;;;3.50;91.50;;;-146.41;100.00;57768.22;4973117;28;20050;-65
2022/03/08 08:07:54;;;;;;;8.27;4.70;;;3.90;91.00;;;-146.41;100.00;57768.22;4977258;28;20133;-65
2022/03/08 08:10:21;;;;;;;9.63;4.93;;;4.20;90.60;;;-146.41;100.00;57768.22;4976960;28;20608;-64
2022/03/08 08:12:48;;;;;;;8.52;5.32;;;;;;;-146.41;100.00;57768.22;4947245;28;20058;-64
2022/03/08 08:15:15;;;;;;;7.03;4.20;;;4.30;88.20;;;-146.41;100.00;57768.22;4961078;28;20422;-65
2022/03/08 08:17:43;;;;;;;10.40;4.65;;;4.70;89.10;;;-146.41;100.00;57768.22;4983928;28;20102;-64
2022/03/08 08:20:10;;;;;;;7.03;4.40;;;4.80;87.40;;;-146.41;100.00;57768.22;4980802;28;20134;-64
2022/03/08 08:22:38;;;;;;;7.30;4.35;;;5.20;86.60;;;-146.41;100.00;57768.22;4977602;28;20258;-64
2022/03/08 08:25:07;;;;;;;6.78;4.75;;;5.30;85.70;;;-146.41;100.00;57768.22;4977284;28;20089;-64
2022/03/08 08:27:34;;;;;;;7.53;5.15;;;5.40;84.30;;;-146.41;100.00;57768.22;4961191;28;20420;-65
2022/03/08 08:30:01;;;;;;;7.72;4.93;;;5.80;83.30;;;-146.41;100.00;57768.22;4982543;28;20086;-65
2022/03/08 08:32:28;;;;;;;7.90;4.10;;;5.80;81.90;;;-146.41;100.00;57768.22;4976558;28;20514;-64
2022/03/08 08:34:55;;;;;;;6.88;4.20;;;5.90;81.30;;;-146.41;100.00;57768.22;4977786;28;20075;-64
2022/03/08 08:37:23;;;;;;;5.70;3.97;;;6.40;81.40;;;-146.41;100.00;57768.22;4963422;28;20496;-64
2022/03/08 08:39:50;;;;;;;6.15;4.20;;;6.10;80.20;;;-146.41;100.00;57768.22;4979869;28;20050;-64
2022/03/08 08:42:17;;;;;;;6.05;4.22;;;6.40;80.70;;;-146.41;100.00;57768.22;4979533;28;20470;-64
2022/03/08 08:44:45;;;;;;;5.60;4.07;;;6.10;78.80;;;-146.41;100.00;57768.22;4962598;28;20588;-65
2022/03/08 08:47:12;;;;;;;8.45;4.43;;;6.40;79.10;;;-146.41;100.00;57768.22;4978247;28;20637;-64
2022/03/08 08:49:39;;;;;;;8.40;4.00;;;6.30;79.30;;;-146.41;100.00;57768.22;4978864;28;20412;-64
2022/03/08 08:52:06;;;;;;;6.60;4.25;;;6.60;78.50;;;-146.41;100.00;57768.22;4981090;28;20141;-65
2022/03/08 08:54:34;;;;;;;8.00;4.30;;;6.60;77.90;;;-146.41;100.00;57768.22;4979408;28;20133;-64
2022/03/08 08:57:00;;;;;;;7.45;4.10;;;6.10;77.60;;;-146.41;100.00;57768.22;4977305;28;20163;-65
2022/03/08 08:59:27;;;;;;;8.63;5.00;;;6.10;77.70;;;-146.41;100.00;57768.22;4978266;28;20552;-64
2022/03/08 09:01:54;;;;;;;8.75;4.20;;;6.60;77.30;;;-146.41;100.00;57768.22;4984002;28;20102;-65
2022/03/08 09:04:23;;;;;;;7.00;4.47;;;6.70;76.80;;;-146.41;100.00;57768.22;4979640;28;20050;-64
2022/03/08 09:06:50;;;;;;;5.95;3.65;;;6.60;75.80;;;-146.41;100.00;57768.22;4955014;28;20054;-64
2022/03/08 09:09:17;;;;;;;7.03;4.05;;;6.80;75.90;;;-146.41;100.00;57768.22;4982655;28;20156;-64
2022/03/08 09:11:45;;;;;;;8.00;3.83;;;7.20;75.40;;;-146.41;100.00;57768.22;4980287;28;20081;-64
2022/03/08 09:14:12;;;;;;;10.35;4.00;;;7.30;74.70;;;-146.41;100.00;57768.22;4974351;28;20066;-65
2022/03/08 09:16:40;;;;;;;6.38;4.03;;;7.20;75.00;;;-146.41;100.00;57768.22;4980447;28;20042;-65
2022/03/08 09:19:08;;;;;;;6.65;4.32;;;7.70;74.60;;;-146.41;100.00;57768.22;4981252;28;20054;-65
2022/03/08 09:21:35;;;;;;;6.57;4.13;;;7.40;73.00;;;-146.41;100.00;57768.22;4965435;28;20126;-65
2022/03/08 09:24:02;;;;;;;6.55;3.53;;;7.80;73.50;;;-146.41;100.00;57768.22;4977852;28;20074;-65
2022/03/08 09:26:29;;;;;;;5.10;3.28;;;7.80;72.70;;;-146.41;100.00;57768.22;4979010;28;20394;-65
2022/03/08 09:28:56;;;;;;;6.00;3.75;;;7.40;73.40;;;-146.41;100.00;57768.22;4979014;28;20046;-66
2022/03/08 09:31:23;;;;;;;6.20;4.05;;;7.20;72.60;;;-146.41;100.00;57768.22;4981687;28;20082;-64
2022/03/08 09:33:50;;;;;;;5.38;3.58;;;7.10;73.10;;;-146.41;100.00;57768.22;4981710;28;20073;-66
2022/03/08 09:36:17;;;;;;;4.95;3.42;;;6.70;74.60;;;-146.41;100.00;57768.22;4979895;28;20046;-65
2022/03/08 09:38:44;;;;;;;4.53;3.28;;;6.40;74.50;;;-146.41;100.00;57768.22;4983584;28;20050;-65
2022/03/08 09:41:12;;;;;;;5.72;3.78;;;6.30;76.00;;;-146.41;100.00;57768.22;4965300;28;20101;-65
2022/03/08 09:43:39;;;;;;;6.88;3.40;;;6.40;75.20;;;-146.41;100.00;57768.22;4987228;28;20105;-65
2022/03/08 09:46:06;;;;;;;7.68;3.63;;;6.40;75.30;;;-146.41;100.00;57768.22;4982329;28;20082;-65
2022/03/08 09:48:33;;;;;;;6.90;3.67;;;6.20;74.90;;;-146.41;100.00;57768.22;4982978;28;20333;-65
2022/03/08 09:51:03;;;;;;;5.90;3.55;;;5.90;75.00;;;-146.41;100.00;57768.22;4982466;28;20104;-66
2022/03/08 09:53:32;;;;;;;8.38;4.28;;;5.70;74.60;;;-146.41;100.00;57768.22;4982580;28;20349;-66
2022/03/08 09:56:01;;;;;;;6.30;3.50;;;5.70;75.80;;;-146.41;100.00;57768.22;4975006;28;20049;-65
2022/03/08 09:58:31;;;;;;;7.28;3.85;;;5.70;75.90;;;-146.41;100.00;57768.22;4972678;28;20047;-65